Time;durP1;ratioP1;P1;durP2;ratioP2;P2;SDS_P1;SDS_P2;PMS_P1;PMS_P2;Temp;Humidity;BMP_temperature;BMP_pressure;BME280_temperature;BME280_humidity;BME280_pressure;Samples;Min_cycle;Max_cycle;Signal;HPM_P1;HPM_P2
2023/09/22 00:00:59;;;;;;;11.25;9.65;;;14.40;99.90;;;;;;5110269;28;20054;-63
2023/09/22 00:03:26;;;;;;;11.02;9.93;;;14.50;99.90;;;;;;5096361;28;20055;-64
2023/09/22 00:05:52;;;;;;;11.15;10.00;;;14.50;99.90;;;;;;5103052;28;20055;-64
2023/09/22 00:08:18;;;;;;;11.48;10.25;;;14.50;99.90;;;;;;5096857;28;20448;-64
2023/09/22 00:10:44;;;;;;;11.15;10.02;;;14.50;99.90;;;;;;5103739;27;20041;-64
2023/09/22 00:13:10;;;;;;;11.57;10.40;;;14.50;99.90;;;;;;5102232;28;20114;-64
2023/09/22 00:15:36;;;;;;;11.52;10.38;;;14.50;99.90;;;;;;5123040;27;20044;-64
2023/09/22 00:18:01;;;;;;;12.25;10.93;;;14.50;99.90;;;;;;5108659;27;20071;-64
2023/09/22 00:20:27;;;;;;;11.27;10.07;;;14.50;99.90;;;;;;5106318;27;20046;-64
2023/09/22 00:22:53;;;;;;;11.95;10.57;;;14.50;99.90;;;;;;5122533;27;20042;-64
2023/09/22 00:25:19;;;;;;;13.43;12.13;;;14.50;99.90;;;;;;5103874;27;20129;-64
2023/09/22 00:27:44;;;;;;;12.32;11.02;;;14.50;99.90;;;;;;5109040;27;20035;-64
2023/09/22 00:30:10;;;;;;;12.77;11.48;;;14.50;99.90;;;;;;5111547;27;20070;-64
2023/09/22 00:32:37;;;;;;;12.80;11.40;;;14.50;99.90;;;;;;5108918;27;20035;-64
2023/09/22 00:35:04;;;;;;;13.95;11.38;;;14.50;99.90;;;;;;5104184;28;20061;-64
2023/09/22 00:37:30;;;;;;;12.43;11.13;;;14.50;99.90;;;;;;5110554;27;20047;-64
2023/09/22 00:39:56;;;;;;;12.30;11.02;;;14.50;99.90;;;;;;5110138;28;20063;-64
2023/09/22 00:42:22;;;;;;;12.82;11.52;;;14.50;99.90;;;;;;5091180;27;20048;-64
2023/09/22 00:44:48;;;;;;;14.82;11.82;;;14.50;99.90;;;;;;5122419;27;20039;-64
2023/09/22 00:47:14;;;;;;;13.15;11.85;;;14.50;99.90;;;;;;5103768;27;20049;-64
2023/09/22 00:49:41;;;;;;;13.32;11.75;;;14.50;99.90;;;;;;5097885;27;20039;-63
2023/09/22 00:52:07;;;;;;;13.32;11.88;;;14.50;99.90;;;;;;5100512;27;20087;-64
2023/09/22 00:54:34;;;;;;;13.85;11.90;;;14.40;99.90;;;;;;5097561;27;20071;-64
2023/09/22 00:57:03;;;;;;;13.07;11.73;;;14.40;99.90;;;;;;5098877;27;20366;-64
2023/09/22 00:59:30;;;;;;;14.80;12.40;;;14.40;99.90;;;;;;5113625;27;20038;-64
2023/09/22 01:01:55;;;;;;;12.98;11.55;;;14.50;99.90;;;;;;5103104;27;20096;-63
2023/09/22 01:04:21;;;;;;;13.70;12.13;;;14.40;99.90;;;;;;5109955;27;20452;-64
2023/09/22 01:06:47;;;;;;;14.68;12.65;;;14.40;99.90;;;;;;5105004;27;20096;-64
2023/09/22 01:09:14;;;;;;;16.23;12.50;;;14.40;99.90;;;;;;5104912;27;20047;-64
2023/09/22 01:11:40;;;;;;;14.40;12.25;;;14.40;99.90;;;;;;5111584;27;20050;-63
2023/09/22 01:14:06;;;;;;;16.23;12.85;;;14.40;99.90;;;;;;5113149;27;20410;-64
2023/09/22 01:16:32;;;;;;;14.30;12.82;;;14.40;99.90;;;;;;5098347;27;20505;-64
2023/09/22 01:18:58;;;;;;;15.07;13.43;;;14.40;99.90;;;;;;5123352;27;20074;-63
2023/09/22 01:21:32;;;;;;;13.82;12.27;;;14.40;99.90;;;;;;5102483;28;20031;-64
2023/09/22 01:23:59;;;;;;;14.35;12.55;;;14.40;99.90;;;;;;5113229;27;20036;-63
2023/09/22 01:26:25;;;;;;;15.15;13.48;;;14.30;99.90;;;;;;5117584;27;20378;-64
2023/09/22 01:28:50;;;;;;;13.35;11.98;;;14.30;99.90;;;;;;5115693;27;20035;-63
2023/09/22 01:31:16;;;;;;;14.15;12.38;;;14.30;99.90;;;;;;5100984;28;20046;-64
2023/09/22 01:33:42;;;;;;;14.98;13.38;;;14.30;99.90;;;;;;5104844;27;20043;-64
2023/09/22 01:36:08;;;;;;;16.67;13.23;;;14.20;99.90;;;;;;5111241;27;20062;-64
2023/09/22 01:38:34;;;;;;;14.60;13.10;;;14.20;99.90;;;;;;5129261;27;20063;-64
2023/09/22 01:41:00;;;;;;;15.52;13.65;;;14.10;99.90;;;;;;5101539;27;20497;-64
2023/09/22 01:43:25;;;;;;;15.50;13.43;;;14.10;99.90;;;;;;5114060;27;20042;-63
2023/09/22 01:45:51;;;;;;;15.18;13.00;;;14.00;99.90;;;;;;5113249;27;20050;-63
2023/09/22 01:48:17;;;;;;;14.82;13.25;;;14.00;99.90;;;;;;5103851;27;20043;-64
2023/09/22 01:50:43;;;;;;;14.23;12.77;;;14.00;99.90;;;;;;5113368;27;20043;-63
2023/09/22 01:53:10;;;;;;;17.05;12.90;;;13.90;99.90;;;;;;5107183;27;20114;-64
2023/09/22 01:55:40;;;;;;;17.08;12.43;;;13.90;99.90;;;;;;5128736;27;20039;-63
2023/09/22 01:58:11;;;;;;;16.20;12.75;;;13.90;99.90;;;;;;5105224;28;20156;-64
2023/09/22 02:00:37;;;;;;;14.95;12.35;;;13.90;99.90;;;;;;5099917;27;20739;-64
2023/09/22 02:03:03;;;;;;;14.32;12.82;;;13.90;99.90;;;;;;5122378;27;20053;-64
2023/09/22 02:05:29;;;;;;;15.35;12.68;;;13.80;99.90;;;;;;5101536;28;20046;-63
2023/09/22 02:07:57;;;;;;;16.75;12.35;;;13.90;99.90;;;;;;5112292;27;20410;-63
2023/09/22 02:10:23;;;;;;;14.65;12.32;;;13.80;99.90;;;;;;5113809;27;20036;-64
2023/09/22 02:12:49;;;;;;;13.10;11.60;;;13.80;99.90;;;;;;5106011;27;20141;-64
2023/09/22 02:15:14;;;;;;;16.85;13.25;;;13.80;99.90;;;;;;5095763;27;20133;-63
2023/09/22 02:17:41;;;;;;;14.52;12.23;;;13.80;99.90;;;;;;5076498;28;20055;-64
2023/09/22 02:20:18;;;;;;;15.75;11.43;;;13.70;99.90;;;;;;5093417;28;20096;-64
2023/09/22 02:22:51;;;;;;;14.90;12.60;;;13.70;99.90;;;;;;5111076;27;20043;-64
2023/09/22 02:25:20;;;;;;;17.95;12.63;;;13.70;99.90;;;;;;5112385;27;20096;-63
2023/09/22 02:27:48;;;;;;;16.35;12.88;;;13.80;99.90;;;;;;5093216;27;20062;-64
2023/09/22 02:30:14;;;;;;;15.15;12.45;;;13.80;99.90;;;;;;5112785;27;20046;-64
2023/09/22 02:32:42;;;;;;;15.50;11.77;;;13.80;99.90;;;;;;5123197;27;20081;-63
2023/09/22 02:35:09;;;;;;;14.52;12.25;;;13.80;99.90;;;;;;5104445;27;20118;-64
2023/09/22 02:37:35;;;;;;;15.50;12.15;;;13.70;99.90;;;;;;5100846;28;20039;-64
2023/09/22 02:40:01;;;;;;;15.20;12.00;;;13.70;99.90;;;;;;5120786;27;20032;-64
2023/09/22 02:42:26;;;;;;;15.02;12.48;;;13.80;99.90;;;;;;5095391;27;20058;-64
2023/09/22 02:44:53;;;;;;;18.63;13.52;;;13.80;99.90;;;;;;5103680;27;20062;-63
2023/09/22 02:47:18;;;;;;;17.25;13.70;;;13.70;99.90;;;;;;5102121;28;20035;-63
2023/09/22 02:49:44;;;;;;;19.85;13.27;;;13.70;99.90;;;;;;5087768;27;20054;-64
2023/09/22 02:52:10;;;;;;;19.27;12.85;;;13.70;99.90;;;;;;5111450;27;20655;-64
2023/09/22 02:54:36;;;;;;;17.60;12.75;;;13.70;99.90;;;;;;5130990;27;20039;-64
2023/09/22 02:57:03;;;;;;;18.58;13.38;;;13.70;99.90;;;;;;5098521;27;20043;-63
2023/09/22 02:59:29;;;;;;;19.38;12.57;;;13.70;99.90;;;;;;5104985;27;20497;-63
2023/09/22 03:01:55;;;;;;;15.77;11.57;;;13.70;99.90;;;;;;5110877;27;20516;-63
2023/09/22 03:04:21;;;;;;;18.15;12.05;;;13.70;99.90;;;;;;5112211;27;20047;-64
2023/09/22 03:06:46;;;;;;;12.40;9.70;;;13.70;99.90;;;;;;5105716;27;20398;-64
2023/09/22 03:09:14;;;;;;;12.93;8.93;;;13.60;99.90;;;;;;5107414;28;20044;-64
2023/09/22 03:11:40;;;;;;;12.07;8.35;;;13.60;99.90;;;;;;5107966;27;20546;-63
2023/09/22 03:14:06;;;;;;;10.40;7.25;;;13.60;99.90;;;;;;5108128;27;20039;-63
2023/09/22 03:16:31;;;;;;;9.95;7.10;;;13.60;99.90;;;;;;5108650;27;20560;-64
2023/09/22 03:18:57;;;;;;;8.23;6.95;;;13.60;99.90;;;;;;5103220;27;20070;-63
2023/09/22 03:21:26;;;;;;;9.25;6.90;;;13.60;99.90;;;;;;5102703;28;20035;-64
2023/09/22 03:23:53;;;;;;;11.05;7.45;;;13.60;99.90;;;;;;5108102;28;20069;-63
2023/09/22 03:26:20;;;;;;;11.77;8.10;;;13.50;99.90;;;;;;5112687;27;20059;-64
2023/09/22 03:28:46;;;;;;;14.23;9.93;;;13.50;99.90;;;;;;5119206;28;20172;-64
2023/09/22 03:31:12;;;;;;;18.48;10.68;;;13.50;99.90;;;;;;5100731;28;20035;-64
2023/09/22 03:33:41;;;;;;;16.25;11.02;;;13.50;99.90;;;;;;5094981;28;20051;-64
2023/09/22 03:36:12;;;;;;;19.13;13.23;;;13.50;99.90;;;;;;5104039;28;20410;-64
2023/09/22 03:38:39;;;;;;;17.88;12.63;;;13.50;99.90;;;;;;5101959;28;20038;-63
2023/09/22 03:41:05;;;;;;;20.48;13.55;;;13.50;99.90;;;;;;5096480;28;20043;-63
2023/09/22 03:43:30;;;;;;;18.10;13.13;;;13.50;99.90;;;;;;5110730;27;20050;-63
2023/09/22 03:45:56;;;;;;;19.80;13.07;;;13.50;99.90;;;;;;5132867;27;20057;-63
2023/09/22 03:48:22;;;;;;;20.13;14.05;;;13.50;99.90;;;;;;5110199;28;20036;-64
2023/09/22 03:50:48;;;;;;;22.42;15.07;;;13.50;99.90;;;;;;5095311;27;20135;-64
2023/09/22 03:53:14;;;;;;;19.88;14.90;;;13.50;99.90;;;;;;5129504;27;20114;-63
2023/09/22 03:55:40;;;;;;;21.27;15.10;;;13.40;99.90;;;;;;5112999;27;20127;-64
2023/09/22 03:58:06;;;;;;;20.77;15.18;;;13.40;99.90;;;;;;5103658;27;20036;-63
2023/09/22 04:00:32;;;;;;;22.88;15.68;;;13.40;99.90;;;;;;5089932;27;20111;-63
2023/09/22 04:02:59;;;;;;;22.27;16.45;;;13.40;99.90;;;;;;5130009;27;20074;-63
2023/09/22 04:05:28;;;;;;;21.48;16.67;;;13.40;99.90;;;;;;5098689;27;20119;-63
2023/09/22 04:07:54;;;;;;;21.40;15.63;;;13.30;99.90;;;;;;5116251;27;20047;-63
2023/09/22 04:10:25;;;;;;;20.98;16.42;;;13.40;99.90;;;;;;5108932;28;20035;-63
2023/09/22 04:12:51;;;;;;;23.15;15.60;;;13.40;99.90;;;;;;5100600;27;20442;-63
2023/09/22 04:15:17;;;;;;;22.63;17.15;;;13.40;99.90;;;;;;5100914;27;20126;-63
2023/09/22 04:17:45;;;;;;;22.20;17.17;;;13.40;99.90;;;;;;5106971;27;20073;-63
2023/09/22 04:20:12;;;;;;;20.90;16.38;;;13.40;99.90;;;;;;5105180;27;20100;-63
2023/09/22 04:22:38;;;;;;;22.55;16.40;;;13.40;99.90;;;;;;5106224;27;20489;-63
2023/09/22 04:25:11;;;;;;;23.00;16.90;;;13.40;99.90;;;;;;5123301;27;20035;-63
2023/09/22 04:27:43;;;;;;;22.20;16.10;;;13.40;99.90;;;;;;5103282;28;20393;-63
2023/09/22 04:30:15;;;;;;;20.40;16.05;;;13.40;99.90;;;;;;5105365;27;20058;-64
2023/09/22 04:32:42;;;;;;;;;;;13.40;99.90;;;;;;5082037;27;20038;-63
2023/09/22 04:35:09;;;;;;;24.17;17.70;;;13.30;99.90;;;;;;5101316;27;19922;-63
2023/09/22 04:37:35;;;;;;;23.40;17.58;;;13.40;99.90;;;;;;5087832;27;20055;-63
2023/09/22 04:40:03;;;;;;;21.95;17.17;;;13.30;99.90;;;;;;5122893;27;20122;-63
2023/09/22 04:42:29;;;;;;;24.48;18.23;;;13.30;99.90;;;;;;5106235;27;22278;-63
2023/09/22 04:44:55;;;;;;;25.67;19.05;;;13.30;99.90;;;;;;5102625;28;20036;-63
2023/09/22 04:47:21;;;;;;;26.48;19.83;;;13.20;99.90;;;;;;5112586;27;20039;-62
2023/09/22 04:49:46;;;;;;;25.05;19.10;;;13.20;99.90;;;;;;5108888;28;20452;-63
2023/09/22 04:52:12;;;;;;;24.88;18.90;;;13.20;99.90;;;;;;5110717;27;20027;-63
2023/09/22 04:54:39;;;;;;;26.02;19.33;;;13.20;99.90;;;;;;5123633;27;20450;-63
2023/09/22 04:57:05;;;;;;;28.73;20.55;;;13.20;99.90;;;;;;5115039;27;20079;-63
2023/09/22 04:59:31;;;;;;;26.00;19.73;;;13.20;99.90;;;;;;5110621;28;20067;-62
2023/09/22 05:01:57;;;;;;;28.42;20.38;;;13.20;99.90;;;;;;5101600;28;20035;-63
2023/09/22 05:04:23;;;;;;;30.02;20.05;;;13.20;99.90;;;;;;5101574;28;20510;-63
2023/09/22 05:06:50;;;;;;;28.10;19.90;;;13.20;99.90;;;;;;5102841;27;20387;-63
2023/09/22 05:09:15;;;;;;;27.85;20.27;;;13.20;99.90;;;;;;5114338;27;20051;-64
2023/09/22 05:11:41;;;;;;;27.85;19.15;;;13.20;99.90;;;;;;5129022;27;20052;-63
2023/09/22 05:14:07;;;;;;;29.70;20.13;;;13.10;99.90;;;;;;5101662;28;20051;-63
2023/09/22 05:16:33;;;;;;;26.95;20.58;;;13.10;99.90;;;;;;5110014;27;20059;-64
2023/09/22 05:18:59;;;;;;;26.73;19.92;;;13.10;99.90;;;;;;5106399;27;20049;-63
2023/09/22 05:21:25;;;;;;;27.42;20.88;;;13.10;99.90;;;;;;5111463;28;20063;-63
2023/09/22 05:23:51;;;;;;;26.90;18.92;;;13.10;99.90;;;;;;5099495;27;20502;-63
2023/09/22 05:26:17;;;;;;;25.02;20.33;;;13.10;99.90;;;;;;5127915;27;20080;-63
2023/09/22 05:28:43;;;;;;;23.73;18.00;;;13.10;99.90;;;;;;5110787;27;20039;-63
2023/09/22 05:31:09;;;;;;;24.02;17.85;;;13.10;99.90;;;;;;5103845;27;20120;-64
2023/09/22 05:33:37;;;;;;;20.88;16.33;;;13.00;99.90;;;;;;5101752;27;20646;-65
2023/09/22 05:36:05;;;;;;;25.73;17.52;;;13.00;99.90;;;;;;5109011;27;20050;-65
2023/09/22 05:38:30;;;;;;;23.15;17.27;;;13.00;99.90;;;;;;5100411;27;20115;-65
2023/09/22 05:40:56;;;;;;;26.73;18.05;;;13.00;99.90;;;;;;5081512;27;20079;-64
2023/09/22 05:43:22;;;;;;;22.88;16.55;;;13.00;99.90;;;;;;5084952;27;20043;-64
2023/09/22 05:45:55;;;;;;;24.45;16.13;;;13.00;99.90;;;;;;5095628;27;20031;-65
2023/09/22 05:48:21;;;;;;;21.92;16.15;;;13.00;99.90;;;;;;5109038;27;20047;-64
2023/09/22 05:51:00;;;;;;;22.15;16.45;;;13.00;99.90;;;;;;5095074;28;20101;-65
2023/09/22 05:53:27;;;;;;;21.95;16.52;;;13.00;99.90;;;;;;5103387;28;20160;-64
2023/09/22 05:56:07;;;;;;;22.08;15.52;;;13.00;99.90;;;;;;5126456;27;20053;-65
2023/09/22 05:58:37;;;;;;;23.20;16.10;;;13.00;99.90;;;;;;5110332;27;20080;-65
2023/09/22 06:01:10;;;;;;;23.25;16.10;;;13.10;99.90;;;;;;5113076;27;20057;-65
2023/09/22 06:03:37;;;;;;;20.83;15.23;;;13.00;99.90;;;;;;5098554;28;20081;-65
2023/09/22 06:06:15;;;;;;;23.13;15.32;;;13.00;99.90;;;;;;5095474;28;20176;-65
2023/09/22 06:08:44;;;;;;;21.13;14.88;;;13.00;99.90;;;;;;5095579;27;20104;-65
2023/09/22 06:11:11;;;;;;;20.38;14.90;;;13.00;99.90;;;;;;5096418;28;20114;-65
2023/09/22 06:13:38;;;;;;;21.13;14.00;;;13.00;99.90;;;;;;5108760;27;20155;-65
2023/09/22 06:16:04;;;;;;;21.40;15.23;;;13.00;99.90;;;;;;5104191;27;20387;-65
2023/09/22 06:18:31;;;;;;;18.52;13.90;;;13.10;99.90;;;;;;5114113;27;20043;-65
2023/09/22 06:20:58;;;;;;;23.77;15.50;;;13.10;99.90;;;;;;5112442;27;20042;-65
2023/09/22 06:23:25;;;;;;;21.55;14.00;;;13.10;99.90;;;;;;5094060;28;20043;-65
2023/09/22 06:25:51;;;;;;;24.30;15.63;;;13.10;99.90;;;;;;5102187;27;20406;-65
2023/09/22 06:28:18;;;;;;;21.67;14.45;;;13.10;99.90;;;;;;5096135;27;20047;-65
2023/09/22 06:30:46;;;;;;;19.20;13.27;;;13.20;99.90;;;;;;5105219;27;20035;-65
2023/09/22 06:33:15;;;;;;;18.90;13.38;;;13.20;99.90;;;;;;5098239;27;20043;-65
2023/09/22 06:35:40;;;;;;;20.30;14.48;;;13.20;99.90;;;;;;5092820;27;20840;-65
2023/09/22 06:38:06;;;;;;;19.88;13.00;;;13.30;99.90;;;;;;5110960;27;20058;-64
2023/09/22 06:40:36;;;;;;;19.23;13.60;;;13.50;99.90;;;;;;5122839;27;20085;-65
2023/09/22 06:43:08;;;;;;;18.27;13.10;;;13.50;99.90;;;;;;5109537;27;20039;-64
2023/09/22 06:45:39;;;;;;;16.33;12.38;;;13.60;99.90;;;;;;5083545;27;20037;-64
2023/09/22 06:48:07;;;;;;;17.42;12.40;;;13.70;99.90;;;;;;5104464;27;20078;-65
2023/09/22 06:50:34;;;;;;;18.00;13.02;;;13.70;99.90;;;;;;5094779;28;20122;-64
2023/09/22 06:53:00;;;;;;;18.40;12.93;;;13.70;99.90;;;;;;5110047;27;20047;-65
2023/09/22 06:55:25;;;;;;;18.23;12.55;;;13.70;99.90;;;;;;5100577;27;20377;-64
2023/09/22 06:57:52;;;;;;;20.38;12.85;;;13.70;99.90;;;;;;5095480;27;20059;-64
2023/09/22 07:00:18;;;;;;;17.67;11.80;;;13.70;99.90;;;;;;5094673;28;20094;-65
2023/09/22 07:02:47;;;;;;;17.20;12.82;;;13.60;99.90;;;;;;5111904;27;20063;-65
2023/09/22 07:05:13;;;;;;;15.35;11.50;;;13.60;99.90;;;;;;5107680;27;20046;-65
2023/09/22 07:07:39;;;;;;;19.05;11.38;;;13.50;99.90;;;;;;5103198;27;20119;-64
2023/09/22 07:10:12;;;;;;;17.77;11.45;;;13.50;99.90;;;;;;5100821;28;20054;-65
2023/09/22 07:12:41;;;;;;;15.63;9.98;;;13.50;99.90;;;;;;5100379;28;20089;-65
2023/09/22 07:15:08;;;;;;;16.25;10.95;;;13.50;99.90;;;;;;5109637;27;20063;-62
2023/09/22 07:17:34;;;;;;;13.43;10.25;;;13.50;99.90;;;;;;5130827;27;20053;-63
2023/09/22 07:20:01;;;;;;;15.80;9.70;;;13.50;99.90;;;;;;5104362;28;20497;-62
2023/09/22 07:22:33;;;;;;;14.95;9.70;;;13.60;99.90;;;;;;5092543;28;20044;-63
2023/09/22 07:24:59;;;;;;;15.23;9.57;;;13.60;99.90;;;;;;5093987;28;20135;-63
2023/09/22 07:27:25;;;;;;;12.93;8.93;;;13.60;99.90;;;;;;5093233;28;20050;-62
2023/09/22 07:29:51;;;;;;;13.18;8.43;;;13.60;99.90;;;;;;5123256;28;20406;-63
2023/09/22 07:32:18;;;;;;;10.00;7.65;;;13.60;99.90;;;;;;5131079;28;20076;-63
2023/09/22 07:34:45;;;;;;;12.68;8.15;;;13.70;99.90;;;;;;5088519;28;20047;-63
2023/09/22 07:37:12;;;;;;;14.80;8.02;;;13.70;99.90;;;;;;5091226;28;20399;-62
2023/09/22 07:39:40;;;;;;;14.25;7.97;;;13.70;99.90;;;;;;5072357;28;20395;-64
2023/09/22 07:42:09;;;;;;;10.20;6.82;;;13.80;99.90;;;;;;5076500;28;20043;-63
2023/09/22 07:44:35;;;;;;;9.88;7.88;;;13.80;99.90;;;;;;5091851;28;20036;-62
2023/09/22 07:47:00;;;;;;;10.05;7.18;;;13.90;99.90;;;;;;5072213;28;20491;-64
2023/09/22 07:49:26;;;;;;;10.57;7.20;;;13.90;99.90;;;;;;5071825;28;20036;-66
2023/09/22 07:51:53;;;;;;;12.45;7.47;;;13.90;99.90;;;;;;5072897;28;20447;-65
2023/09/22 07:54:22;;;;;;;12.68;7.72;;;14.00;99.90;;;;;;5072207;28;20042;-65
2023/09/22 07:56:48;;;;;;;11.48;6.80;;;14.00;99.90;;;;;;5073109;28;20382;-66
2023/09/22 07:59:14;;;;;;;10.30;6.43;;;14.00;99.90;;;;;;5080780;28;20117;-66
2023/09/22 08:01:42;;;;;;;10.35;6.43;;;14.00;99.90;;;;;;5072293;28;20079;-65
2023/09/22 08:04:12;;;;;;;9.65;6.63;;;14.10;99.90;;;;;;5072337;28;20072;-66
2023/09/22 08:06:38;;;;;;;11.23;6.35;;;14.10;99.90;;;;;;5073272;28;20044;-66
2023/09/22 08:09:04;;;;;;;8.40;5.70;;;14.20;99.90;;;;;;5080503;28;20423;-65
2023/09/22 08:11:33;;;;;;;8.27;5.60;;;14.40;99.90;;;;;;5085269;28;20075;-65
2023/09/22 08:13:59;;;;;;;8.05;5.30;;;14.60;99.90;;;;;;5083300;28;20053;-65
2023/09/22 08:16:26;;;;;;;7.63;4.90;;;14.80;99.90;;;;;;5087406;28;20093;-66
2023/09/22 08:18:53;;;;;;;6.95;4.45;;;14.90;99.90;;;;;;5074572;28;20478;-65
2023/09/22 08:21:21;;;;;;;6.07;3.65;;;14.80;99.90;;;;;;5077760;28;20390;-65
2023/09/22 08:23:47;;;;;;;4.45;3.10;;;14.80;99.90;;;;;;5091678;28;20466;-65
2023/09/22 08:26:17;;;;;;;5.85;3.22;;;14.80;99.90;;;;;;5098598;28;20394;-65
2023/09/22 08:28:44;;;;;;;10.10;2.85;;;14.90;99.90;;;;;;5073879;28;20058;-66
2023/09/22 08:31:11;;;;;;;4.15;1.70;;;15.00;99.90;;;;;;5091882;28;20040;-65
2023/09/22 08:33:36;;;;;;;2.92;1.98;;;15.10;99.90;;;;;;5074903;28;20108;-66
2023/09/22 08:36:03;;;;;;;5.35;1.75;;;15.20;99.90;;;;;;5072430;28;20389;-65
2023/09/22 08:38:31;;;;;;;5.32;1.67;;;15.40;99.90;;;;;;5079013;28;20043;-66
2023/09/22 08:40:58;;;;;;;3.17;2.03;;;15.50;99.90;;;;;;5096518;28;20063;-66
2023/09/22 08:43:25;;;;;;;3.20;1.90;;;15.50;99.90;;;;;;5080013;28;20040;-65
2023/09/22 08:45:51;;;;;;;3.58;1.90;;;15.50;99.90;;;;;;5083790;28;20115;-65
2023/09/22 08:48:16;;;;;;;3.75;1.90;;;15.40;99.90;;;;;;5087580;28;20044;-65
2023/09/22 08:50:43;;;;;;;2.33;1.63;;;15.40;99.90;;;;;;5084571;28;20113;-66
2023/09/22 08:53:11;;;;;;;2.33;1.98;;;15.60;99.90;;;;;;5097589;28;20364;-65
2023/09/22 08:55:38;;;;;;;2.60;1.70;;;15.70;99.90;;;;;;5089876;28;20143;-67
2023/09/22 08:58:04;;;;;;;6.43;1.70;;;15.90;99.90;;;;;;5086052;28;20078;-65
2023/09/22 09:00:30;;;;;;;3.97;2.03;;;16.00;99.90;;;;;;5091853;28;20031;-65
2023/09/22 09:02:58;;;;;;;3.63;1.90;;;16.00;99.90;;;;;;5070861;28;20061;-65
2023/09/22 09:05:25;;;;;;;2.22;1.50;;;15.90;99.90;;;;;;5077268;28;20040;-66
2023/09/22 09:07:52;;;;;;;3.30;1.52;;;16.10;99.90;;;;;;5093317;28;20056;-65
2023/09/22 09:10:29;;;;;;;3.50;1.60;;;16.20;99.90;;;;;;5074376;28;20039;-65
2023/09/22 09:12:56;;;;;;;2.75;1.58;;;16.10;99.90;;;;;;5076578;28;20040;-65
2023/09/22 09:15:27;;;;;;;2.88;1.85;;;15.90;99.90;;;;;;5079855;28;20074;-65
2023/09/22 09:18:06;;;;;;;2.35;1.60;;;16.10;99.90;;;;;;5088573;28;20130;-65
2023/09/22 09:20:36;;;;;;;3.80;1.63;;;16.30;99.90;;;;;;5076116;28;20055;-66
2023/09/22 09:23:19;;;;;;;2.15;1.17;;;16.50;99.90;;;;;;5067451;28;20048;-65
2023/09/22 09:25:49;;;;;;;3.83;1.40;;;16.50;99.90;;;;;;5082406;28;20054;-65
2023/09/22 09:28:17;;;;;;;2.50;1.35;;;16.30;99.90;;;;;;5080777;28;20087;-65
2023/09/22 09:30:51;;;;;;;2.45;1.35;;;16.30;99.90;;;;;;5073310;28;20027;-66
2023/09/22 09:33:22;;;;;;;2.50;1.27;;;16.30;99.90;;;;;;5081605;28;20101;-64
2023/09/22 09:35:49;;;;;;;2.73;1.33;;;16.40;99.90;;;;;;5081349;28;20051;-66
2023/09/22 09:38:15;;;;;;;2.50;1.10;;;16.50;99.90;;;;;;5082332;28;20296;-66
2023/09/22 09:40:41;;;;;;;2.25;0.98;;;16.60;99.90;;;;;;5082789;28;20084;-65
2023/09/22 09:43:12;;;;;;;1.92;1.10;;;16.40;99.90;;;;;;5075739;28;20055;-65
2023/09/22 09:45:50;;;;;;;1.90;1.20;;;16.20;99.90;;;;;;5074793;28;20390;-65
2023/09/22 09:48:18;;;;;;;4.80;1.00;;;15.90;99.90;;;;;;5079475;28;20040;-65
2023/09/22 09:50:52;;;;;;;2.80;1.10;;;15.60;99.90;;;;;;5075037;28;20032;-66
2023/09/22 09:53:27;;;;;;;1.23;0.80;;;15.40;99.90;;;;;;5093207;28;20044;-65
2023/09/22 09:55:58;;;;;;;1.45;1.00;;;15.30;99.90;;;;;;5110903;28;20043;-65
2023/09/22 09:58:27;;;;;;;1.55;0.85;;;15.20;99.90;;;;;;5075607;28;20439;-65
2023/09/22 10:00:55;;;;;;;2.97;1.13;;;15.10;99.90;;;;;;5076378;28;20035;-66
2023/09/22 10:03:21;;;;;;;1.15;0.80;;;15.10;99.90;;;;;;5091494;28;20040;-65
2023/09/22 10:05:52;;;;;;;2.28;1.08;;;15.10;99.90;;;;;;5076670;28;20840;-66
2023/09/22 10:08:22;;;;;;;2.85;1.10;;;15.20;99.90;;;;;;5084510;28;20482;-65
2023/09/22 10:10:56;;;;;;;2.45;1.00;;;15.30;99.90;;;;;;5091457;28;20047;-66
2023/09/22 10:13:22;;;;;;;2.83;0.95;;;15.30;99.90;;;;;;5073526;28;20052;-65
2023/09/22 10:16:04;;;;;;;1.83;1.00;;;15.30;99.90;;;;;;5082155;28;20545;-64
2023/09/22 10:18:46;;;;;;;2.35;0.82;;;15.40;99.90;;;;;;5070894;28;20036;-65
2023/09/22 10:21:30;;;;;;;1.27;0.70;;;15.40;99.90;;;;;;5103623;28;20071;-64
2023/09/22 10:24:23;;;;;;;2.45;1.10;;;15.40;99.90;;;;;;5086753;28;20093;-65
2023/09/22 10:27:03;;;;;;;3.13;1.00;;;15.30;99.90;;;;;;5085632;28;20050;-66
2023/09/22 10:29:35;;;;;;;2.08;1.10;;;15.30;99.90;;;;;;5078343;28;20402;-66
2023/09/22 10:32:19;;;;;;;2.47;1.10;;;15.30;99.90;;;;;;5075572;28;20093;-65
2023/09/22 10:34:49;;;;;;;2.28;1.50;;;15.30;99.90;;;;;;5089383;28;20051;-65
2023/09/22 10:37:16;;;;;;;2.50;1.52;;;15.60;99.90;;;;;;5083421;28;20062;-66
2023/09/22 10:40:11;;;;;;;1.98;1.38;;;16.10;99.90;;;;;;5084341;28;20088;-65
2023/09/22 10:42:49;;;;;;;1.95;1.20;;;16.90;99.90;;;;;;5088482;28;20047;-65
2023/09/22 10:45:21;;;;;;;2.80;1.48;;;17.60;99.90;;;;;;5078334;28;20062;-65
2023/09/22 10:47:51;;;;;;;3.47;1.00;;;18.20;99.90;;;;;;5080016;28;20044;-65
2023/09/22 10:50:22;;;;;;;1.65;0.80;;;18.50;99.90;;;;;;5072559;28;20075;-65
2023/09/22 10:52:55;;;;;;;2.88;0.80;;;18.70;99.90;;;;;;5088748;28;20132;-65
2023/09/22 10:55:35;;;;;;;1.40;1.00;;;19.00;99.90;;;;;;5090083;28;20040;-65
2023/09/22 10:58:05;;;;;;;2.53;0.88;;;19.00;99.90;;;;;;5093208;28;20031;-66
2023/09/22 11:00:32;;;;;;;1.80;0.70;;;18.90;99.90;;;;;;5084669;28;20042;-65
2023/09/22 11:03:11;;;;;;;1.08;0.90;;;18.60;99.90;;;;;;5090296;28;20810;-65
2023/09/22 11:05:41;;;;;;;1.33;0.98;;;18.50;99.90;;;;;;5073631;28;20052;-65
2023/09/22 11:08:12;;;;;;;2.97;0.90;;;18.80;99.90;;;;;;5072696;28;20044;-65
2023/09/22 11:10:37;;;;;;;1.13;0.80;;;19.00;99.90;;;;;;5079574;28;20036;-65
2023/09/22 11:13:03;;;;;;;1.08;0.90;;;18.70;99.90;;;;;;5078087;28;20032;-66
2023/09/22 11:15:29;;;;;;;1.85;1.00;;;18.80;99.90;;;;;;5074584;28;20189;-65
2023/09/22 11:17:55;;;;;;;1.25;1.10;;;18.70;99.90;;;;;;5082630;28;20574;-66
2023/09/22 11:20:26;;;;;;;1.20;1.00;;;18.90;99.90;;;;;;5083403;28;20054;-65
2023/09/22 11:22:53;;;;;;;1.63;1.10;;;18.70;99.90;;;;;;5092403;28;20051;-65
2023/09/22 11:25:21;;;;;;;1.77;1.10;;;18.50;99.90;;;;;;5081763;28;20040;-66
2023/09/22 11:27:47;;;;;;;1.40;1.30;;;18.40;99.90;;;;;;5076166;28;20105;-66
2023/09/22 11:30:16;;;;;;;3.85;1.10;;;18.40;99.90;;;;;;5083128;28;20360;-66
2023/09/22 11:32:43;;;;;;;1.58;1.15;;;18.70;99.90;;;;;;5087922;28;20177;-65
2023/09/22 11:35:10;;;;;;;2.00;1.20;;;18.40;99.90;;;;;;5092291;28;20478;-65
2023/09/22 11:37:36;;;;;;;2.95;1.20;;;18.40;99.90;;;;;;5101604;28;20118;-65
2023/09/22 11:40:13;;;;;;;1.52;0.90;;;18.40;99.90;;;;;;5079420;28;20440;-66
2023/09/22 11:42:39;;;;;;;1.58;1.05;;;18.30;99.90;;;;;;5078187;28;20122;-65
2023/09/22 11:45:05;;;;;;;1.85;1.30;;;18.10;99.90;;;;;;5072759;28;20115;-65
2023/09/22 11:47:31;;;;;;;1.55;1.00;;;17.90;99.90;;;;;;5084238;28;20036;-65
2023/09/22 11:49:56;;;;;;;2.15;1.00;;;17.80;99.90;;;;;;5082523;28;20058;-66
2023/09/22 11:52:31;;;;;;;3.55;1.08;;;17.90;99.90;;;;;;5092169;28;20116;-65
2023/09/22 11:54:57;;;;;;;1.15;0.90;;;18.10;99.90;;;;;;5088627;28;20047;-65
2023/09/22 11:57:22;;;;;;;1.73;0.82;;;18.10;99.90;;;;;;5073375;28;20448;-65
2023/09/22 11:59:57;;;;;;;1.48;1.10;;;18.10;99.90;;;;;;5086023;28;20118;-65
2023/09/22 12:02:22;;;;;;;3.25;1.00;;;17.90;99.90;;;;;;5076144;28;20073;-65
2023/09/22 12:04:48;;;;;;;2.30;1.10;;;17.80;99.90;;;;;;5075861;28;20071;-66
2023/09/22 12:07:16;;;;;;;1.27;1.00;;;17.60;99.90;;;;;;5080271;28;20040;-65
2023/09/22 12:09:42;;;;;;;3.92;1.20;;;17.60;99.90;;;;;;5065650;28;20039;-66
2023/09/22 12:12:09;;;;;;;1.10;1.00;;;17.60;99.90;;;;;;5079343;28;20036;-65
2023/09/22 12:14:35;;;;;;;1.48;1.13;;;17.60;99.90;;;;;;5089020;28;20039;-65
2023/09/22 12:17:01;;;;;;;1.40;1.30;;;17.50;99.90;;;;;;5082832;28;20044;-65
2023/09/22 12:19:26;;;;;;;2.72;1.38;;;17.40;99.90;;;;;;5079901;28;20131;-66
2023/09/22 12:21:52;;;;;;;2.03;1.52;;;17.20;99.90;;;;;;5085100;28;20123;-66
2023/09/22 12:24:18;;;;;;;2.28;1.23;;;17.20;99.90;;;;;;5080184;28;20048;-65
2023/09/22 12:26:44;;;;;;;1.10;1.00;;;17.10;99.90;;;;;;5085055;28;20410;-65
2023/09/22 12:29:10;;;;;;;1.40;0.90;;;17.20;99.90;;;;;;5082417;28;20039;-65
2023/09/22 12:31:36;;;;;;;2.50;1.00;;;17.30;99.90;;;;;;5062472;28;20040;-64
2023/09/22 12:34:02;;;;;;;1.10;1.00;;;17.30;99.90;;;;;;5089111;28;20052;-64
2023/09/22 12:36:28;;;;;;;2.35;1.00;;;17.40;99.90;;;;;;5095472;28;20474;-65
2023/09/22 12:38:53;;;;;;;1.20;0.90;;;17.30;99.90;;;;;;5094696;28;20051;-65